sensor_id;sensor_type;location;lat;lon;timestamp;P1;durP1;ratioP1;P2;durP2;ratioP2
1523;SDS011;755;53.658;10.118;2023-05-07T00:02:14;17.67;;;10.40;;
1523;SDS011;755;53.658;10.118;2023-05-07T00:12:16;18.20;;;10.02;;
1523;SDS011;755;53.658;10.118;2023-05-07T00:22:20;17.60;;;10.82;;
1523;SDS011;755;53.658;10.118;2023-05-07T00:32:22;19.20;;;9.45;;
1523;SDS011;755;53.658;10.118;2023-05-07T00:42:26;21.95;;;11.10;;
1523;SDS011;755;53.658;10.118;2023-05-07T00:52:29;16.70;;;9.70;;
1523;SDS011;755;53.658;10.118;2023-05-07T01:02:33;20.70;;;10.02;;
1523;SDS011;755;53.658;10.118;2023-05-07T01:12:35;20.02;;;10.93;;
1523;SDS011;755;53.658;10.118;2023-05-07T01:22:41;18.25;;;10.82;;
1523;SDS011;755;53.658;10.118;2023-05-07T01:32:45;18.58;;;10.25;;
1523;SDS011;755;53.658;10.118;2023-05-07T01:42:53;16.92;;;9.65;;
1523;SDS011;755;53.658;10.118;2023-05-07T01:52:56;17.65;;;9.20;;
1523;SDS011;755;53.658;10.118;2023-05-07T02:03:00;14.27;;;8.70;;
1523;SDS011;755;53.658;10.118;2023-05-07T02:13:02;18.30;;;9.20;;
1523;SDS011;755;53.658;10.118;2023-05-07T02:23:07;16.10;;;8.98;;
1523;SDS011;755;53.658;10.118;2023-05-07T02:33:12;16.57;;;10.07;;
1523;SDS011;755;53.658;10.118;2023-05-07T02:43:19;19.25;;;10.60;;
1523;SDS011;755;53.658;10.118;2023-05-07T02:53:21;15.20;;;9.63;;
1523;SDS011;755;53.658;10.118;2023-05-07T03:03:27;17.02;;;9.93;;
1523;SDS011;755;53.658;10.118;2023-05-07T03:13:30;21.13;;;10.60;;
1523;SDS011;755;53.658;10.118;2023-05-07T03:23:34;17.23;;;9.57;;
1523;SDS011;755;53.658;10.118;2023-05-07T03:33:39;15.50;;;10.07;;
1523;SDS011;755;53.658;10.118;2023-05-07T03:43:53;16.40;;;9.85;;
1523;SDS011;755;53.658;10.118;2023-05-07T03:53:56;13.57;;;8.30;;
1523;SDS011;755;53.658;10.118;2023-05-07T04:04:00;16.65;;;9.55;;
1523;SDS011;755;53.658;10.118;2023-05-07T04:14:03;17.20;;;9.68;;
1523;SDS011;755;53.658;10.118;2023-05-07T04:24:07;16.50;;;8.95;;
1523;SDS011;755;53.658;10.118;2023-05-07T04:34:09;17.13;;;8.90;;
1523;SDS011;755;53.658;10.118;2023-05-07T04:44:13;14.02;;;8.68;;
1523;SDS011;755;53.658;10.118;2023-05-07T04:54:17;20.40;;;8.93;;
1523;SDS011;755;53.658;10.118;2023-05-07T05:04:22;14.82;;;8.50;;
1523;SDS011;755;53.658;10.118;2023-05-07T05:14:24;12.93;;;7.40;;
1523;SDS011;755;53.658;10.118;2023-05-07T05:24:32;13.05;;;7.35;;
1523;SDS011;755;53.658;10.118;2023-05-07T05:34:34;12.60;;;7.15;;
1523;SDS011;755;53.658;10.118;2023-05-07T05:44:38;13.65;;;8.18;;
1523;SDS011;755;53.658;10.118;2023-05-07T05:54:40;13.95;;;7.45;;
1523;SDS011;755;53.658;10.118;2023-05-07T06:04:47;11.38;;;6.75;;
1523;SDS011;755;53.658;10.118;2023-05-07T06:14:49;12.90;;;7.95;;
1523;SDS011;755;53.658;10.118;2023-05-07T06:24:53;11.35;;;6.75;;
1523;SDS011;755;53.658;10.118;2023-05-07T06:34:58;12.73;;;6.82;;
1523;SDS011;755;53.658;10.118;2023-05-07T06:45:10;10.18;;;5.85;;
1523;SDS011;755;53.658;10.118;2023-05-07T06:55:14;10.87;;;6.77;;
1523;SDS011;755;53.658;10.118;2023-05-07T07:05:18;9.82;;;5.78;;
1523;SDS011;755;53.658;10.118;2023-05-07T07:15:29;8.70;;;5.00;;
1523;SDS011;755;53.658;10.118;2023-05-07T07:25:33;8.68;;;5.32;;
1523;SDS011;755;53.658;10.118;2023-05-07T07:35:37;13.57;;;5.22;;
1523;SDS011;755;53.658;10.118;2023-05-07T07:45:42;12.50;;;5.20;;
1523;SDS011;755;53.658;10.118;2023-05-07T07:55:47;10.63;;;4.80;;
1523;SDS011;755;53.658;10.118;2023-05-07T08:05:51;10.82;;;4.57;;
1523;SDS011;755;53.658;10.118;2023-05-07T08:15:53;12.40;;;5.10;;
1523;SDS011;755;53.658;10.118;2023-05-07T08:26:00;8.27;;;4.53;;
1523;SDS011;755;53.658;10.118;2023-05-07T08:36:08;8.70;;;4.20;;
1523;SDS011;755;53.658;10.118;2023-05-07T08:46:27;7.93;;;4.10;;
1523;SDS011;755;53.658;10.118;2023-05-07T08:56:35;6.82;;;3.30;;
1523;SDS011;755;53.658;10.118;2023-05-07T09:06:42;9.07;;;3.83;;
1523;SDS011;755;53.658;10.118;2023-05-07T09:16:53;7.50;;;4.50;;
1523;SDS011;755;53.658;10.118;2023-05-07T09:27:01;6.70;;;4.40;;
1523;SDS011;755;53.658;10.118;2023-05-07T09:37:06;6.70;;;4.00;;
1523;SDS011;755;53.658;10.118;2023-05-07T09:47:10;7.93;;;3.97;;
1523;SDS011;755;53.658;10.118;2023-05-07T09:57:13;7.40;;;4.07;;
1523;SDS011;755;53.658;10.118;2023-05-07T10:07:18;13.88;;;3.63;;
1523;SDS011;755;53.658;10.118;2023-05-07T10:17:23;5.03;;;3.33;;
1523;SDS011;755;53.658;10.118;2023-05-07T10:27:27;7.28;;;3.47;;
1523;SDS011;755;53.658;10.118;2023-05-07T10:37:32;4.47;;;2.30;;
1523;SDS011;755;53.658;10.118;2023-05-07T10:47:37;5.75;;;2.60;;
1523;SDS011;755;53.658;10.118;2023-05-07T10:58:25;5.10;;;2.75;;
1523;SDS011;755;53.658;10.118;2023-05-07T11:08:35;6.40;;;2.47;;
1523;SDS011;755;53.658;10.118;2023-05-07T11:18:55;3.80;;;2.70;;
1523;SDS011;755;53.658;10.118;2023-05-07T11:29:03;3.25;;;2.35;;
1523;SDS011;755;53.658;10.118;2023-05-07T11:39:25;4.72;;;2.92;;
1523;SDS011;755;53.658;10.118;2023-05-07T11:49:30;4.55;;;2.38;;
1523;SDS011;755;53.658;10.118;2023-05-07T11:59:38;4.05;;;2.00;;
1523;SDS011;755;53.658;10.118;2023-05-07T12:09:42;4.35;;;1.85;;
1523;SDS011;755;53.658;10.118;2023-05-07T12:19:45;2.90;;;2.05;;
1523;SDS011;755;53.658;10.118;2023-05-07T12:29:49;4.38;;;1.80;;
1523;SDS011;755;53.658;10.118;2023-05-07T12:40:03;2.78;;;1.65;;
1523;SDS011;755;53.658;10.118;2023-05-07T12:50:08;2.55;;;1.45;;
1523;SDS011;755;53.658;10.118;2023-05-07T13:00:12;2.15;;;1.33;;
1523;SDS011;755;53.658;10.118;2023-05-07T13:10:16;1.70;;;1.33;;
1523;SDS011;755;53.658;10.118;2023-05-07T13:20:19;1.52;;;1.08;;
1523;SDS011;755;53.658;10.118;2023-05-07T13:30:22;6.68;;;1.25;;
1523;SDS011;755;53.658;10.118;2023-05-07T13:40:24;4.93;;;0.93;;
1523;SDS011;755;53.658;10.118;2023-05-07T13:50:28;1.67;;;1.02;;
1523;SDS011;755;53.658;10.118;2023-05-07T14:00:30;1.85;;;1.40;;
1523;SDS011;755;53.658;10.118;2023-05-07T14:10:33;2.92;;;1.15;;
1523;SDS011;755;53.658;10.118;2023-05-07T14:20:35;2.72;;;1.13;;
1523;SDS011;755;53.658;10.118;2023-05-07T14:30:39;1.20;;;1.00;;
1523;SDS011;755;53.658;10.118;2023-05-07T14:40:41;1.10;;;1.00;;
1523;SDS011;755;53.658;10.118;2023-05-07T14:50:45;5.68;;;1.40;;
1523;SDS011;755;53.658;10.118;2023-05-07T15:00:51;7.55;;;3.22;;
1523;SDS011;755;53.658;10.118;2023-05-07T15:10:55;3.63;;;1.98;;
1523;SDS011;755;53.658;10.118;2023-05-07T15:20:58;2.30;;;1.58;;
1523;SDS011;755;53.658;10.118;2023-05-07T15:31:04;2.33;;;1.42;;
1523;SDS011;755;53.658;10.118;2023-05-07T15:41:07;4.78;;;3.65;;
1523;SDS011;755;53.658;10.118;2023-05-07T15:51:11;7.22;;;1.50;;
1523;SDS011;755;53.658;10.118;2023-05-07T16:01:13;2.40;;;1.45;;
1523;SDS011;755;53.658;10.118;2023-05-07T16:11:20;4.63;;;1.58;;
1523;SDS011;755;53.658;10.118;2023-05-07T16:21:22;5.10;;;1.48;;
1523;SDS011;755;53.658;10.118;2023-05-07T16:31:26;7.10;;;3.20;;
1523;SDS011;755;53.658;10.118;2023-05-07T16:41:28;6.07;;;1.67;;
1523;SDS011;755;53.658;10.118;2023-05-07T16:51:33;4.45;;;2.45;;
1523;SDS011;755;53.658;10.118;2023-05-07T17:01:36;14.27;;;5.05;;
1523;SDS011;755;53.658;10.118;2023-05-07T17:11:39;3.13;;;2.05;;
1523;SDS011;755;53.658;10.118;2023-05-07T17:21:42;3.40;;;1.63;;
1523;SDS011;755;53.658;10.118;2023-05-07T17:31:48;4.80;;;1.60;;
1523;SDS011;755;53.658;10.118;2023-05-07T17:41:52;3.40;;;1.58;;
1523;SDS011;755;53.658;10.118;2023-05-07T17:52:02;4.45;;;2.80;;
1523;SDS011;755;53.658;10.118;2023-05-07T18:02:48;3.85;;;1.55;;
1523;SDS011;755;53.658;10.118;2023-05-07T18:13:32;2.75;;;1.90;;
1523;SDS011;755;53.658;10.118;2023-05-07T18:23:36;9.20;;;3.70;;
1523;SDS011;755;53.658;10.118;2023-05-07T18:44:58;6.32;;;2.25;;
1523;SDS011;755;53.658;10.118;2023-05-07T18:55:00;3.95;;;1.80;;
1523;SDS011;755;53.658;10.118;2023-05-07T19:05:04;5.05;;;2.13;;
1523;SDS011;755;53.658;10.118;2023-05-07T19:15:07;4.43;;;2.15;;
1523;SDS011;755;53.658;10.118;2023-05-07T19:25:11;4.00;;;1.98;;
1523;SDS011;755;53.658;10.118;2023-05-07T19:35:13;4.50;;;1.98;;
1523;SDS011;755;53.658;10.118;2023-05-07T19:45:16;7.15;;;2.90;;
1523;SDS011;755;53.658;10.118;2023-05-07T19:55:19;4.65;;;2.20;;
1523;SDS011;755;53.658;10.118;2023-05-07T20:05:22;4.68;;;1.92;;
1523;SDS011;755;53.658;10.118;2023-05-07T20:15:25;6.88;;;2.40;;
1523;SDS011;755;53.658;10.118;2023-05-07T20:25:28;5.88;;;2.17;;
1523;SDS011;755;53.658;10.118;2023-05-07T20:35:30;3.50;;;2.33;;
1523;SDS011;755;53.658;10.118;2023-05-07T20:45:35;3.65;;;2.50;;
1523;SDS011;755;53.658;10.118;2023-05-07T20:55:37;4.43;;;2.30;;
1523;SDS011;755;53.658;10.118;2023-05-07T21:05:41;6.20;;;2.80;;
1523;SDS011;755;53.658;10.118;2023-05-07T21:15:43;4.22;;;3.03;;
1523;SDS011;755;53.658;10.118;2023-05-07T21:25:47;4.80;;;2.95;;
1523;SDS011;755;53.658;10.118;2023-05-07T21:35:50;7.22;;;3.05;;
1523;SDS011;755;53.658;10.118;2023-05-07T21:45:54;5.18;;;2.88;;
1523;SDS011;755;53.658;10.118;2023-05-07T21:55:57;4.53;;;2.80;;
1523;SDS011;755;53.658;10.118;2023-05-07T22:06:02;5.07;;;2.40;;
1523;SDS011;755;53.658;10.118;2023-05-07T22:16:05;3.05;;;1.80;;
1523;SDS011;755;53.658;10.118;2023-05-07T22:26:12;3.30;;;1.75;;
1523;SDS011;755;53.658;10.118;2023-05-07T22:36:14;3.70;;;2.37;;
1523;SDS011;755;53.658;10.118;2023-05-07T22:46:17;6.70;;;2.38;;
1523;SDS011;755;53.658;10.118;2023-05-07T22:56:19;3.65;;;2.05;;
1523;SDS011;755;53.658;10.118;2023-05-07T23:06:22;2.42;;;1.85;;
1523;SDS011;755;53.658;10.118;2023-05-07T23:16:24;2.30;;;1.92;;
1523;SDS011;755;53.658;10.118;2023-05-07T23:26:29;4.53;;;2.65;;
1523;SDS011;755;53.658;10.118;2023-05-07T23:36:31;8.07;;;2.08;;
1523;SDS011;755;53.658;10.118;2023-05-07T23:46:35;4.05;;;2.25;;
1523;SDS011;755;53.658;10.118;2023-05-07T23:56:37;3.45;;;2.28;;
